createdAt,value
2017-12-12T00:00:36.965Z,8.55
2017-12-12T00:01:36.953Z,8.64
2017-12-12T00:02:36.429Z,8.55
2017-12-12T00:03:36.444Z,8.51
2017-12-12T00:04:36.994Z,8.58
2017-12-12T00:05:36.760Z,8.53
2017-12-12T00:06:36.750Z,8.55
2017-12-12T00:07:36.776Z,8.55
2017-12-12T00:08:36.774Z,8.49
2017-12-12T00:09:37.075Z,8.52
2017-12-12T00:10:37.082Z,8.53
2017-12-12T00:11:37.086Z,8.55
2017-12-12T00:12:37.104Z,8.55
2017-12-12T00:13:37.117Z,8.55
2017-12-12T00:14:37.132Z,8.55
2017-12-12T00:15:36.878Z,8.55
2017-12-12T00:16:37.153Z,8.52
2017-12-12T00:17:36.630Z,8.55
2017-12-12T00:18:37.178Z,8.6
2017-12-12T00:19:37.195Z,8.55
2017-12-12T00:20:36.948Z,8.56
2017-12-12T00:21:36.947Z,8.48
2017-12-12T00:22:36.963Z,8.55
2017-12-12T00:23:37.245Z,8.48
2017-12-12T00:24:37.266Z,8.51
2017-12-12T00:25:37.272Z,8.51
2017-12-12T00:26:37.289Z,8.55
2017-12-12T00:27:37.298Z,8.55
2017-12-12T00:28:37.311Z,8.55
2017-12-12T00:29:37.060Z,8.53
2017-12-12T00:30:37.333Z,8.55
2017-12-12T00:31:37.084Z,8.53
2017-12-12T00:32:37.367Z,8.66
2017-12-12T00:33:37.375Z,8.6
2017-12-12T00:34:37.121Z,8.51
2017-12-12T00:35:37.403Z,8.58
2017-12-12T00:36:37.415Z,8.53
2017-12-12T00:37:37.443Z,8.55
2017-12-12T00:38:37.172Z,8.61
2017-12-12T00:39:37.455Z,8.53
2017-12-12T00:40:36.944Z,8.56
2017-12-12T00:41:37.481Z,8.61
2017-12-12T00:42:37.499Z,8.49
2017-12-12T00:43:37.511Z,8.55
2017-12-12T00:44:37.518Z,8.48
2017-12-12T00:45:37.270Z,8.52
2017-12-12T00:46:37.011Z,8.61
2017-12-12T00:47:37.559Z,8.52
2017-12-12T00:48:37.316Z,8.48
2017-12-12T00:49:37.591Z,8.53
2017-12-12T00:50:37.643Z,8.55
2017-12-12T00:51:37.612Z,8.61
2017-12-12T00:52:37.625Z,8.51
2017-12-12T00:53:37.374Z,8.55
2017-12-12T00:54:37.393Z,8.61
2017-12-12T00:55:37.665Z,8.51
2017-12-12T00:56:37.678Z,8.55
2017-12-12T00:57:37.424Z,8.58
2017-12-12T00:58:37.707Z,8.48
2017-12-12T00:59:37.718Z,8.52
2017-12-12T01:00:37.733Z,8.48
2017-12-12T01:01:37.476Z,8.61
2017-12-12T01:02:37.759Z,8.51
2017-12-12T01:03:37.768Z,8.52
2017-12-12T01:04:37.272Z,8.55
2017-12-12T01:05:37.532Z,8.52
2017-12-12T01:06:37.816Z,8.52
2017-12-12T01:07:37.831Z,8.51
2017-12-12T01:08:37.842Z,8.51
2017-12-12T01:09:37.907Z,8.61
2017-12-12T01:10:37.866Z,8.52
2017-12-12T01:11:37.882Z,8.67
2017-12-12T01:12:37.626Z,8.53
2017-12-12T01:13:37.909Z,8.55
2017-12-12T01:14:37.914Z,8.52
2017-12-12T01:15:37.932Z,8.51
2017-12-12T01:16:37.408Z,8.53
2017-12-12T01:17:37.962Z,8.48
2017-12-12T01:18:37.969Z,8.55
2017-12-12T01:19:37.981Z,8.52
2017-12-12T01:20:38.003Z,8.58
2017-12-12T01:21:38.007Z,8.51
2017-12-12T01:22:38.035Z,8.53
2017-12-12T01:23:37.776Z,8.49
2017-12-12T01:24:38.052Z,8.52
2017-12-12T01:25:37.797Z,8.6
2017-12-12T01:26:37.808Z,8.52
2017-12-12T01:27:38.089Z,8.52
2017-12-12T01:28:38.101Z,8.51
2017-12-12T01:29:38.129Z,8.51
2017-12-12T01:30:37.846Z,8.48
2017-12-12T01:31:38.137Z,8.52
2017-12-12T01:32:37.881Z,8.49
2017-12-12T01:33:38.156Z,8.51
2017-12-12T01:34:37.907Z,8.51
2017-12-12T01:35:38.177Z,8.55
2017-12-12T01:36:37.929Z,8.52
2017-12-12T01:37:37.942Z,8.52
2017-12-12T01:38:38.227Z,8.58
2017-12-12T01:39:38.233Z,8.53
2017-12-12T01:40:37.981Z,8.49
2017-12-12T01:41:38.265Z,8.53
2017-12-12T01:42:38.009Z,8.51
2017-12-12T01:43:38.286Z,8.52
2017-12-12T01:44:38.298Z,8.52
2017-12-12T01:45:38.327Z,8.52
2017-12-12T01:46:38.333Z,8.48
2017-12-12T01:47:38.074Z,8.55
2017-12-12T01:48:38.356Z,8.51
2017-12-12T01:49:38.373Z,8.52
2017-12-12T01:50:38.389Z,8.52
2017-12-12T01:51:38.393Z,8.51
2017-12-12T01:52:38.405Z,8.48
2017-12-12T01:53:38.423Z,8.48
2017-12-12T01:54:38.435Z,8.58
2017-12-12T01:55:38.445Z,8.51
2017-12-12T01:56:38.459Z,8.51
2017-12-12T01:57:38.208Z,8.51
2017-12-12T01:58:38.489Z,8.6
2017-12-12T01:59:38.501Z,8.51
2017-12-12T02:00:38.514Z,8.55
2017-12-12T02:01:38.262Z,8.51
2017-12-12T02:02:38.283Z,8.48
2017-12-12T02:03:38.550Z,8.6
2017-12-12T02:04:38.566Z,8.58
2017-12-12T02:05:38.320Z,8.52
2017-12-12T02:06:38.328Z,8.46
2017-12-12T02:07:38.340Z,8.49
2017-12-12T02:08:38.669Z,8.56
2017-12-12T02:09:38.669Z,8.58
2017-12-12T02:10:38.110Z,8.49
2017-12-12T02:11:38.657Z,8.51
2017-12-12T02:12:38.666Z,8.49
2017-12-12T02:13:38.680Z,8.46
2017-12-12T02:14:38.698Z,8.56
2017-12-12T02:15:38.715Z,8.49
2017-12-12T02:16:38.722Z,8.51
2017-12-12T02:17:38.519Z,8.52
2017-12-12T02:18:38.813Z,8.48
2017-12-12T02:19:38.499Z,8.52
2017-12-12T02:20:38.240Z,8.48
2017-12-12T02:21:38.786Z,8.46
2017-12-12T02:22:38.803Z,8.51
2017-12-12T02:23:38.813Z,8.48
2017-12-12T02:24:38.825Z,8.48
2017-12-12T02:25:38.837Z,8.52
2017-12-12T02:26:38.854Z,8.49
2017-12-12T02:27:38.864Z,8.55
2017-12-12T02:28:38.882Z,8.55
2017-12-12T02:29:38.945Z,8.55
2017-12-12T02:30:38.375Z,8.52
2017-12-12T02:31:38.918Z,8.55
2017-12-12T02:32:38.951Z,8.51
2017-12-12T02:33:38.976Z,8.49
2017-12-12T02:34:38.963Z,8.51
2017-12-12T02:35:38.976Z,8.52
2017-12-12T02:36:38.454Z,8.48
2017-12-12T02:37:39.001Z,8.49
2017-12-12T02:38:39.008Z,8.49
2017-12-12T02:39:39.032Z,8.53
2017-12-12T02:40:39.035Z,8.53
2017-12-12T02:41:39.057Z,8.46
2017-12-12T02:42:38.531Z,8.48
2017-12-12T02:43:39.080Z,8.49
2017-12-12T02:44:39.094Z,8.49
2017-12-12T02:45:38.844Z,8.51
2017-12-12T02:46:38.852Z,8.46
2017-12-12T02:47:38.865Z,8.46
2017-12-12T02:48:39.144Z,8.48
2017-12-12T02:49:39.302Z,8.48
2017-12-12T02:50:38.916Z,8.52
2017-12-12T02:51:39.191Z,8.49
2017-12-12T02:52:39.240Z,8.49
2017-12-12T02:53:38.945Z,8.51
2017-12-12T02:54:39.229Z,8.48
2017-12-12T02:55:38.973Z,8.46
2017-12-12T02:56:39.254Z,8.53
2017-12-12T02:57:39.258Z,8.49
2017-12-12T02:58:38.742Z,8.51
2017-12-12T02:59:39.290Z,8.53
2017-12-12T03:00:39.038Z,8.51
2017-12-12T03:01:39.316Z,8.48
2017-12-12T03:02:39.060Z,8.51
2017-12-12T03:03:39.344Z,8.44
2017-12-12T03:04:39.089Z,8.44
2017-12-12T03:05:39.371Z,8.51
2017-12-12T03:06:39.378Z,8.49
2017-12-12T03:07:39.398Z,8.53
2017-12-12T03:08:39.409Z,8.46
2017-12-12T03:09:39.419Z,8.46
2017-12-12T03:10:39.166Z,8.51
2017-12-12T03:11:39.439Z,8.46
2017-12-12T03:12:39.205Z,8.51
2017-12-12T03:13:39.206Z,8.49
2017-12-12T03:14:39.540Z,8.49
2017-12-12T03:15:39.237Z,8.49
2017-12-12T03:16:39.512Z,8.41
2017-12-12T03:17:39.258Z,8.42
2017-12-12T03:18:39.272Z,8.46
2017-12-12T03:19:39.286Z,8.52
2017-12-12T03:20:39.297Z,8.42
2017-12-12T03:21:39.580Z,8.42
2017-12-12T03:22:39.586Z,8.46
2017-12-12T03:23:39.339Z,8.45
2017-12-12T03:24:39.618Z,8.44
2017-12-12T03:25:39.632Z,8.45
2017-12-12T03:26:39.378Z,8.42
2017-12-12T03:27:39.387Z,8.38
2017-12-12T03:28:39.674Z,8.42
2017-12-12T03:29:39.421Z,8.44
2017-12-12T03:30:39.705Z,8.41
2017-12-12T03:31:39.709Z,8.42
2017-12-12T03:32:39.720Z,8.46
2017-12-12T03:33:39.470Z,8.41
2017-12-12T03:34:39.484Z,8.38
2017-12-12T03:35:39.498Z,8.37
2017-12-12T03:36:39.772Z,8.49
2017-12-12T03:37:39.785Z,8.36
2017-12-12T03:38:39.537Z,8.31
2017-12-12T03:39:39.546Z,8.37
2017-12-12T03:40:39.826Z,8.41
2017-12-12T03:41:39.574Z,8.44
2017-12-12T03:42:39.857Z,8.36
2017-12-12T03:43:39.599Z,8.42
2017-12-12T03:44:39.885Z,8.36
2017-12-12T03:45:39.366Z,8.36
2017-12-12T03:46:39.914Z,8.33
2017-12-12T03:47:39.921Z,8.36
2017-12-12T03:48:39.664Z,8.34
2017-12-12T03:49:39.946Z,8.3
2017-12-12T03:50:39.969Z,8.37
2017-12-12T03:51:39.969Z,8.33
2017-12-12T03:52:39.718Z,8.36
2017-12-12T03:53:39.732Z,8.48
2017-12-12T03:54:40.015Z,8.37
2017-12-12T03:55:40.023Z,8.31
2017-12-12T03:56:40.037Z,8.31
2017-12-12T03:57:40.055Z,8.37
2017-12-12T03:58:40.063Z,8.36
2017-12-12T03:59:40.085Z,8.34
2017-12-12T04:00:40.089Z,8.46
2017-12-12T04:01:40.100Z,8.33
2017-12-12T04:02:40.114Z,8.28
2017-12-12T04:03:40.130Z,8.41
2017-12-12T04:04:40.149Z,8.28
2017-12-12T04:05:40.153Z,8.44
2017-12-12T04:06:39.901Z,8.37
2017-12-12T04:07:40.186Z,8.45
2017-12-12T04:08:40.192Z,8.38
2017-12-12T04:09:39.938Z,8.46
2017-12-12T04:10:40.220Z,8.44
2017-12-12T04:11:40.233Z,8.33
2017-12-12T04:12:40.246Z,8.34
2017-12-12T04:13:40.308Z,8.37
2017-12-12T04:14:40.268Z,8.36
2017-12-12T04:15:40.281Z,8.34
2017-12-12T04:16:40.302Z,8.33
2017-12-12T04:17:40.330Z,8.33
2017-12-12T04:18:40.064Z,8.36
2017-12-12T04:19:40.070Z,8.31
2017-12-12T04:20:40.352Z,8.33
2017-12-12T04:21:40.360Z,8.31
2017-12-12T04:22:40.111Z,8.37
2017-12-12T04:23:40.423Z,8.33
2017-12-12T04:24:40.409Z,8.37
2017-12-12T04:25:40.203Z,8.33
2017-12-12T04:26:40.427Z,8.33
2017-12-12T04:27:40.444Z,8.34
2017-12-12T04:28:40.527Z,8.31
2017-12-12T04:29:40.202Z,8.3
2017-12-12T04:30:40.240Z,8.31
2017-12-12T04:31:40.497Z,8.26
2017-12-12T04:32:40.584Z,8.34
2017-12-12T04:33:40.304Z,8.3
2017-12-12T04:34:40.541Z,8.28
2017-12-12T04:35:40.618Z,8.24
2017-12-12T04:36:40.294Z,8.33
2017-12-12T04:37:40.576Z,8.33
2017-12-12T04:38:40.590Z,8.27
2017-12-12T04:39:40.332Z,8.33
2017-12-12T04:40:40.076Z,8.3
2017-12-12T04:41:40.627Z,8.28
2017-12-12T04:42:40.634Z,8.31
2017-12-12T04:43:40.672Z,8.33
2017-12-12T04:44:40.688Z,8.31
2017-12-12T04:45:40.414Z,8.24
2017-12-12T04:46:40.691Z,8.41
2017-12-12T04:47:40.436Z,8.34
2017-12-12T04:48:40.715Z,8.24
2017-12-12T04:49:40.731Z,8.19
2017-12-12T04:50:40.740Z,8.33
2017-12-12T04:51:40.764Z,8.24
2017-12-12T04:52:40.502Z,8.37
2017-12-12T04:53:40.528Z,8.38
2017-12-12T04:54:40.795Z,8.36
2017-12-12T04:55:40.968Z,8.34
2017-12-12T04:56:40.821Z,8.33
2017-12-12T04:57:40.569Z,8.33
2017-12-12T04:58:40.587Z,8.24
2017-12-12T04:59:40.634Z,8.34
2017-12-12T05:00:40.957Z,8.36
2017-12-12T05:01:40.881Z,8.33
2017-12-12T05:02:40.913Z,8.26
2017-12-12T05:03:40.914Z,8.37
2017-12-12T05:04:40.929Z,8.37
2017-12-12T05:05:40.936Z,8.2
2017-12-12T05:06:40.955Z,8.34
2017-12-12T05:07:40.702Z,8.27
2017-12-12T05:08:40.989Z,8.3
2017-12-12T05:09:40.744Z,8.31
2017-12-12T05:10:40.997Z,8.31
2017-12-12T05:11:40.485Z,8.3
2017-12-12T05:12:40.762Z,8.33
2017-12-12T05:13:40.774Z,8.31
2017-12-12T05:14:40.888Z,8.31
2017-12-12T05:15:41.070Z,8.33
2017-12-12T05:16:41.102Z,8.33
2017-12-12T05:17:40.833Z,8.34
2017-12-12T05:18:41.200Z,8.33
2017-12-12T05:19:41.121Z,8.33
2017-12-12T05:20:40.864Z,8.19
2017-12-12T05:21:41.149Z,8.31
2017-12-12T05:22:41.155Z,8.33
2017-12-12T05:23:40.904Z,8.26
2017-12-12T05:24:40.919Z,8.33
2017-12-12T05:25:41.194Z,8.33
2017-12-12T05:26:41.211Z,8.3
2017-12-12T05:27:41.223Z,8.24
2017-12-12T05:28:40.969Z,8.33
2017-12-12T05:29:40.986Z,8.23
2017-12-12T05:30:41.262Z,8.36
2017-12-12T05:31:41.276Z,8.24
2017-12-12T05:32:41.292Z,8.23
2017-12-12T05:33:41.307Z,8.2
2017-12-12T05:34:41.048Z,8.26
2017-12-12T05:35:41.065Z,8.36
2017-12-12T05:36:41.342Z,8.33
2017-12-12T05:37:40.821Z,8.28
2017-12-12T05:38:41.367Z,8.26
2017-12-12T05:39:41.376Z,8.3
2017-12-12T05:40:41.398Z,8.26
2017-12-12T05:41:41.137Z,8.23
2017-12-12T05:42:41.152Z,8.26
2017-12-12T05:43:41.477Z,8.26
2017-12-12T05:44:41.458Z,8.27
2017-12-12T05:45:41.192Z,8.2
2017-12-12T05:46:41.201Z,8.23
2017-12-12T05:47:41.485Z,8.24
2017-12-12T05:48:41.499Z,8.23
2017-12-12T05:49:41.509Z,8.19
2017-12-12T05:50:41.523Z,8.16
2017-12-12T05:51:41.281Z,8.23
2017-12-12T05:52:41.289Z,8.24
2017-12-12T05:53:41.560Z,8.19
2017-12-12T05:54:41.577Z,8.2
2017-12-12T05:55:41.321Z,8.19
2017-12-12T05:56:41.334Z,8.19
2017-12-12T05:57:41.612Z,8.12
2017-12-12T05:58:41.096Z,8.15
2017-12-12T05:59:41.104Z,8.16
2017-12-12T06:00:41.387Z,8.15
2017-12-12T06:01:41.664Z,8.12
2017-12-12T06:02:41.142Z,8.16
2017-12-12T06:03:41.693Z,8.1
2017-12-12T06:04:41.706Z,8.13
2017-12-12T06:05:41.463Z,8.09
2017-12-12T06:06:41.464Z,8.13
2017-12-12T06:07:41.807Z,8.19
2017-12-12T06:08:41.502Z,8.19
2017-12-12T06:09:41.769Z,8.13
2017-12-12T06:10:41.782Z,8.13
2017-12-12T06:11:41.802Z,8.15
2017-12-12T06:12:41.804Z,8.09
2017-12-12T06:13:41.817Z,8.12
2017-12-12T06:14:41.567Z,8.15
2017-12-12T06:15:41.841Z,8.13
2017-12-12T06:16:41.328Z,8.13
2017-12-12T06:17:41.604Z,8.12
2017-12-12T06:18:41.883Z,8.12
2017-12-12T06:19:41.897Z,8.13
2017-12-12T06:20:41.934Z,8.16
2017-12-12T06:21:41.923Z,8.12
2017-12-12T06:22:41.934Z,8.19
2017-12-12T06:23:41.682Z,8.19
2017-12-12T06:24:41.718Z,8.24
2017-12-12T06:25:41.975Z,8.15
2017-12-12T06:26:41.995Z,8.2
2017-12-12T06:27:41.735Z,8.24
2017-12-12T06:28:42.056Z,8.19
2017-12-12T06:29:42.025Z,8.19
2017-12-12T06:30:42.036Z,8.23
2017-12-12T06:31:42.055Z,8.18
2017-12-12T06:32:41.808Z,8.2
2017-12-12T06:33:42.082Z,8.19
2017-12-12T06:34:42.090Z,8.19
2017-12-12T06:35:42.109Z,8.19
2017-12-12T06:36:42.115Z,8.19
2017-12-12T06:37:42.136Z,8.16
2017-12-12T06:38:42.152Z,8.15
2017-12-12T06:39:42.161Z,8.15
2017-12-12T06:40:42.168Z,8.18
2017-12-12T06:41:42.180Z,8.15
2017-12-12T06:42:42.201Z,8.16
2017-12-12T06:43:41.676Z,8.16
2017-12-12T06:44:42.219Z,8.16
2017-12-12T06:45:41.973Z,8.08
2017-12-12T06:46:42.256Z,8.15
2017-12-12T06:47:42.265Z,8.09
2017-12-12T06:48:42.267Z,8.09
2017-12-12T06:49:42.302Z,8.09
2017-12-12T06:50:42.303Z,8.09
2017-12-12T06:51:42.311Z,8.08
2017-12-12T06:52:42.324Z,8.08
2017-12-12T06:53:42.338Z,8.08
2017-12-12T06:54:42.352Z,8.06
2017-12-12T06:55:42.094Z,8.08
2017-12-12T06:56:42.113Z,8.13
2017-12-12T06:57:42.385Z,8.1
2017-12-12T06:58:42.417Z,8.09
2017-12-12T06:59:42.152Z,8.12
2017-12-12T07:00:41.892Z,8.09
2017-12-12T07:01:42.451Z,8.1
2017-12-12T07:02:42.456Z,8.13
2017-12-12T07:03:42.467Z,8.01
2017-12-12T07:04:42.213Z,8.1
2017-12-12T07:05:42.488Z,8.09
2017-12-12T07:06:42.510Z,8.09
2017-12-12T07:07:42.515Z,8.05
2017-12-12T07:08:42.531Z,7.98
2017-12-12T07:09:42.541Z,8.05
2017-12-12T07:10:42.559Z,8.05
2017-12-12T07:11:42.622Z,8.01
2017-12-12T07:12:42.618Z,8.01
2017-12-12T07:13:42.325Z,8.05
2017-12-12T07:14:42.370Z,8.09
2017-12-12T07:15:42.626Z,7.95
2017-12-12T07:16:42.632Z,7.88
2017-12-12T07:17:42.641Z,7.93
2017-12-12T07:18:42.658Z,7.83
2017-12-12T07:19:42.409Z,7.77
2017-12-12T07:20:42.728Z,7.77
2017-12-12T07:21:42.698Z,7.79
2017-12-12T07:22:42.786Z,7.77
2017-12-12T07:23:42.747Z,7.72
2017-12-12T07:24:42.735Z,7.7
2017-12-12T07:25:42.480Z,7.75
2017-12-12T07:26:42.494Z,7.72
2017-12-12T07:27:42.511Z,7.6
2017-12-12T07:28:42.782Z,7.7
2017-12-12T07:29:42.798Z,7.66
2017-12-12T07:30:42.813Z,7.58
2017-12-12T07:31:42.842Z,7.58
2017-12-12T07:32:42.837Z,7.66
2017-12-12T07:33:42.852Z,7.63
2017-12-12T07:34:42.859Z,7.67
2017-12-12T07:35:42.613Z,7.58
2017-12-12T07:36:42.622Z,7.69
2017-12-12T07:37:42.958Z,7.66
2017-12-12T07:38:42.643Z,7.57
2017-12-12T07:39:42.928Z,7.66
2017-12-12T07:40:42.961Z,7.69
2017-12-12T07:41:42.950Z,7.69
2017-12-12T07:42:42.966Z,7.66
2017-12-12T07:43:43.008Z,7.7
2017-12-12T07:44:42.986Z,7.61
2017-12-12T07:45:42.999Z,7.67
2017-12-12T07:46:42.743Z,7.7
2017-12-12T07:47:42.776Z,7.69
2017-12-12T07:48:43.041Z,7.66
2017-12-12T07:49:42.541Z,7.69
2017-12-12T07:50:43.072Z,7.63
2017-12-12T07:51:43.082Z,7.72
2017-12-12T07:52:43.087Z,7.61
2017-12-12T07:53:43.121Z,7.75
2017-12-12T07:54:42.844Z,7.63
2017-12-12T07:55:42.908Z,7.7
2017-12-12T07:56:43.148Z,7.69
2017-12-12T07:57:43.150Z,7.66
2017-12-12T07:58:43.183Z,7.61
2017-12-12T07:59:43.192Z,7.66
2017-12-12T08:00:42.936Z,7.6
2017-12-12T08:01:43.209Z,7.69
2017-12-12T08:02:43.212Z,7.66
2017-12-12T08:03:42.768Z,7.7
2017-12-12T08:04:43.257Z,7.61
2017-12-12T08:05:43.279Z,7.69
2017-12-12T08:06:43.270Z,7.69
2017-12-12T08:07:43.284Z,7.69
2017-12-12T08:08:43.071Z,7.66
2017-12-12T08:09:43.317Z,7.67
2017-12-12T08:10:43.312Z,7.66
2017-12-12T08:11:43.328Z,7.66
2017-12-12T08:12:43.346Z,7.63
2017-12-12T08:13:43.083Z,7.72
2017-12-12T08:14:43.365Z,7.7
2017-12-12T08:15:43.381Z,7.63
2017-12-12T08:16:42.858Z,7.72
2017-12-12T08:17:43.402Z,7.58
2017-12-12T08:18:43.417Z,7.61
2017-12-12T08:19:43.490Z,7.63
2017-12-12T08:20:43.440Z,7.48
2017-12-12T08:21:43.452Z,7.5
2017-12-12T08:22:43.460Z,7.48
2017-12-12T08:23:43.210Z,7.51
2017-12-12T08:24:43.491Z,7.43
2017-12-12T08:25:43.236Z,7.48
2017-12-12T08:26:43.248Z,7.43
2017-12-12T08:27:43.531Z,7.4
2017-12-12T08:28:43.277Z,7.39
2017-12-12T08:29:43.288Z,7.31
2017-12-12T08:30:43.300Z,7.39
2017-12-12T08:31:43.579Z,7.36
2017-12-12T08:32:43.610Z,7.33
2017-12-12T08:33:43.069Z,7.29
2017-12-12T08:34:43.615Z,7.36
2017-12-12T08:35:43.375Z,7.33
2017-12-12T08:36:43.643Z,7.29
2017-12-12T08:37:43.650Z,7.32
2017-12-12T08:38:43.400Z,7.33
2017-12-12T08:39:43.424Z,7.15
2017-12-12T08:40:43.693Z,7.21
2017-12-12T08:41:43.701Z,7.17
2017-12-12T08:42:43.714Z,7.18
2017-12-12T08:43:43.459Z,7.2
2017-12-12T08:44:43.740Z,7.17
2017-12-12T08:45:43.759Z,7.17
2017-12-12T08:46:43.765Z,7.18
2017-12-12T08:47:43.778Z,7.17
2017-12-12T08:48:43.524Z,7.21
2017-12-12T08:49:43.796Z,7.23
2017-12-12T08:50:43.810Z,7.14
2017-12-12T08:51:43.824Z,7.13
2017-12-12T08:52:43.568Z,7.13
2017-12-12T08:53:43.851Z,7.17
2017-12-12T08:54:43.860Z,7.23
2017-12-12T08:55:43.609Z,7.13
2017-12-12T08:56:43.880Z,7.17
2017-12-12T08:57:43.897Z,7.17
2017-12-12T08:58:43.650Z,7.2
2017-12-12T08:59:43.923Z,7.21
2017-12-12T09:00:43.936Z,7.18
2017-12-12T09:01:43.682Z,7.17
2017-12-12T09:02:43.694Z,7.17
2017-12-12T09:03:43.986Z,7.14
2017-12-12T09:04:43.720Z,7.2
2017-12-12T09:05:43.996Z,7.14
2017-12-12T09:06:44.005Z,7.2
2017-12-12T09:07:44.025Z,7.18
2017-12-12T09:08:43.504Z,7.2
2017-12-12T09:09:44.045Z,7.06
2017-12-12T09:10:43.788Z,7.15
2017-12-12T09:11:44.071Z,7.2
2017-12-12T09:12:44.081Z,7.14
2017-12-12T09:13:44.094Z,7.2
2017-12-12T09:14:43.842Z,7.18
2017-12-12T09:15:43.587Z,7.15
2017-12-12T09:16:44.133Z,7.15
2017-12-12T09:17:44.139Z,7.21
2017-12-12T09:18:44.158Z,7.21
2017-12-12T09:19:43.905Z,7.17
2017-12-12T09:20:44.179Z,7.2
2017-12-12T09:21:44.193Z,7.13
2017-12-12T09:22:43.936Z,7.18
2017-12-12T09:23:44.222Z,7.14
2017-12-12T09:24:43.961Z,7.15
2017-12-12T09:25:44.244Z,7.14
2017-12-12T09:26:44.252Z,7.17
2017-12-12T09:27:43.995Z,7.13
2017-12-12T09:28:44.280Z,7.07
2017-12-12T09:29:44.293Z,7.1
2017-12-12T09:30:44.040Z,7.11
2017-12-12T09:31:44.314Z,7.1
2017-12-12T09:32:44.063Z,7.07
2017-12-12T09:33:44.072Z,7.07
2017-12-12T09:34:44.352Z,7.13
2017-12-12T09:35:44.371Z,7.05
2017-12-12T09:36:44.112Z,7.11
2017-12-12T09:37:44.134Z,7.02
2017-12-12T09:38:44.147Z,7.05
2017-12-12T09:39:44.418Z,7
2017-12-12T09:40:44.422Z,7.1
2017-12-12T09:41:44.432Z,7.07
2017-12-12T09:42:44.446Z,7.11
2017-12-12T09:43:44.460Z,7.07
2017-12-12T09:44:44.473Z,7.07
2017-12-12T09:45:44.491Z,7.05
2017-12-12T09:46:44.497Z,7.11
2017-12-12T09:47:44.244Z,7.11
2017-12-12T09:48:44.522Z,7.14
2017-12-12T09:49:44.267Z,7.21
2017-12-12T09:50:44.549Z,7.21
2017-12-12T09:51:44.555Z,7.13
2017-12-12T09:52:44.575Z,7.21
2017-12-12T09:53:44.580Z,7.24
2017-12-12T09:54:44.596Z,7.17
2017-12-12T09:55:44.604Z,7.14
2017-12-12T09:56:44.097Z,7.13
2017-12-12T09:57:44.632Z,7.15
2017-12-12T09:58:44.642Z,7.13
2017-12-12T09:59:44.385Z,7.17
2017-12-12T10:00:44.404Z,7.23
2017-12-12T10:01:44.681Z,7.21
2017-12-12T10:02:44.690Z,7.18
2017-12-12T10:03:44.702Z,7.23
2017-12-12T10:04:44.448Z,7.17
2017-12-12T10:05:44.726Z,7.17
2017-12-12T10:06:44.739Z,7.17
2017-12-12T10:07:44.751Z,7.14
2017-12-12T10:08:44.763Z,7.15
2017-12-12T10:09:44.504Z,7.21
2017-12-12T10:10:44.263Z,7.17
2017-12-12T10:11:44.802Z,7.15
2017-12-12T10:12:44.816Z,7.17
2017-12-12T10:13:44.563Z,7.13
2017-12-12T10:14:44.300Z,7.15
2017-12-12T10:15:44.579Z,7.13
2017-12-12T10:16:44.590Z,7.15
2017-12-12T10:17:44.341Z,7.2
2017-12-12T10:18:44.887Z,7.15
2017-12-12T10:19:44.892Z,7.2
2017-12-12T10:20:44.920Z,7.28
2017-12-12T10:21:44.921Z,7.24
2017-12-12T10:22:44.932Z,7.32
2017-12-12T10:23:44.740Z,7.29
2017-12-12T10:24:44.692Z,7.31
2017-12-12T10:25:44.705Z,7.29
2017-12-12T10:26:44.994Z,7.28
2017-12-12T10:27:44.992Z,7.25
2017-12-12T10:28:44.738Z,7.31
2017-12-12T10:29:44.751Z,7.33
2017-12-12T10:30:44.772Z,7.23
2017-12-12T10:31:45.039Z,7.39
2017-12-12T10:32:44.788Z,7.28
2017-12-12T10:33:44.805Z,7.29
2017-12-12T10:34:44.814Z,7.31
2017-12-12T10:35:45.152Z,7.31
2017-12-12T10:36:44.840Z,7.33
2017-12-12T10:37:45.112Z,7.31
2017-12-12T10:38:44.860Z,7.31
2017-12-12T10:39:45.141Z,7.31
2017-12-12T10:40:45.152Z,7.29
2017-12-12T10:41:45.162Z,7.39
2017-12-12T10:42:45.177Z,7.28
2017-12-12T10:43:44.924Z,7.31
2017-12-12T10:44:44.934Z,7.36
2017-12-12T10:45:44.944Z,7.47
2017-12-12T10:46:45.227Z,7.47
2017-12-12T10:47:45.242Z,7.38
2017-12-12T10:48:45.253Z,7.38
2017-12-12T10:49:44.995Z,7.35
2017-12-12T10:50:45.269Z,7.43
2017-12-12T10:51:45.288Z,7.42
2017-12-12T10:52:45.031Z,7.4
2017-12-12T10:53:45.046Z,7.38
2017-12-12T10:54:45.057Z,7.4
2017-12-12T10:55:44.799Z,7.39
2017-12-12T10:56:45.345Z,7.48
2017-12-12T10:57:45.360Z,7.39
2017-12-12T10:58:45.100Z,7.47
2017-12-12T10:59:45.383Z,7.45
2017-12-12T11:00:45.127Z,7.42
2017-12-12T11:01:45.143Z,7.43
2017-12-12T11:02:45.426Z,7.42
2017-12-12T11:03:45.431Z,7.47
2017-12-12T11:04:45.176Z,7.43
2017-12-12T11:05:45.191Z,7.47
2017-12-12T11:06:45.204Z,7.47
2017-12-12T11:07:45.485Z,7.51
2017-12-12T11:08:45.225Z,7.51
2017-12-12T11:09:45.243Z,7.48
2017-12-12T11:10:45.514Z,7.47
2017-12-12T11:11:45.525Z,7.6
2017-12-12T11:12:45.544Z,7.61
2017-12-12T11:13:45.553Z,7.69
2017-12-12T11:14:45.567Z,7.57
2017-12-12T11:15:45.315Z,7.69
2017-12-12T11:16:45.598Z,7.69
2017-12-12T11:17:45.602Z,7.67
2017-12-12T11:18:45.350Z,7.69
2017-12-12T11:19:45.630Z,7.67
2017-12-12T11:20:45.643Z,7.66
2017-12-12T11:21:45.391Z,7.73
2017-12-12T11:22:45.662Z,7.67
2017-12-12T11:23:45.150Z,7.57
2017-12-12T11:24:45.425Z,7.66
2017-12-12T11:25:45.698Z,7.75
2017-12-12T11:26:45.714Z,7.73
2017-12-12T11:27:45.461Z,7.73
2017-12-12T11:28:45.739Z,7.72
2017-12-12T11:29:45.748Z,7.72
2017-12-12T11:30:45.761Z,7.72
2017-12-12T11:31:45.508Z,7.72
2017-12-12T11:32:45.788Z,7.69
2017-12-12T11:33:45.799Z,7.83
2017-12-12T11:34:45.545Z,7.72
2017-12-12T11:35:45.560Z,7.7
2017-12-12T11:36:45.834Z,7.75
2017-12-12T11:37:45.892Z,7.76
2017-12-12T11:38:45.592Z,7.69
2017-12-12T11:39:45.873Z,7.67
2017-12-12T11:40:45.624Z,7.69
2017-12-12T11:41:45.906Z,7.67
2017-12-12T11:42:45.911Z,7.7
2017-12-12T11:43:45.973Z,7.75
2017-12-12T11:44:45.935Z,7.67
2017-12-12T11:45:45.686Z,7.67
2017-12-12T11:46:45.959Z,7.7
2017-12-12T11:47:45.974Z,7.67
2017-12-12T11:48:45.995Z,7.82
2017-12-12T11:49:45.735Z,7.73
2017-12-12T11:50:46.007Z,7.76
2017-12-12T11:51:46.039Z,7.72
2017-12-12T11:52:46.032Z,7.8
2017-12-12T11:53:46.046Z,7.7
2017-12-12T11:54:46.063Z,7.72
2017-12-12T11:55:46.072Z,7.7
2017-12-12T11:56:46.081Z,7.76
2017-12-12T11:57:46.096Z,7.66
2017-12-12T11:58:46.114Z,7.73
2017-12-12T11:59:45.855Z,7.72
2017-12-12T12:00:46.133Z,7.7
2017-12-12T12:01:45.878Z,7.72
2017-12-12T12:02:46.156Z,7.73
2017-12-12T12:03:46.176Z,7.67
2017-12-12T12:04:45.915Z,7.69
2017-12-12T12:05:46.195Z,7.67
2017-12-12T12:06:46.207Z,7.73
2017-12-12T12:07:46.220Z,7.67
2017-12-12T12:08:45.965Z,7.67
2017-12-12T12:09:46.032Z,7.7
2017-12-12T12:10:46.270Z,7.69
2017-12-12T12:11:46.268Z,7.67
2017-12-12T12:12:46.018Z,7.69
2017-12-12T12:13:46.032Z,7.72
2017-12-12T12:14:46.316Z,7.63
2017-12-12T12:15:46.056Z,7.6
2017-12-12T12:16:46.333Z,7.63
2017-12-12T12:17:46.345Z,7.63
2017-12-12T12:18:46.358Z,7.66
2017-12-12T12:19:46.109Z,7.57
2017-12-12T12:20:46.383Z,7.63
2017-12-12T12:21:45.867Z,7.66
2017-12-12T12:22:46.402Z,7.61
2017-12-12T12:23:46.421Z,7.66
2017-12-12T12:24:46.427Z,7.6
2017-12-12T12:25:46.446Z,7.66
2017-12-12T12:26:46.455Z,7.61
2017-12-12T12:27:46.462Z,7.6
2017-12-12T12:28:46.208Z,7.6
2017-12-12T12:29:46.492Z,7.5
2017-12-12T12:30:46.507Z,7.51
2017-12-12T12:31:46.308Z,7.5
2017-12-12T12:32:46.529Z,7.51
2017-12-12T12:33:46.549Z,7.5
2017-12-12T12:34:46.289Z,7.51
2017-12-12T12:35:46.624Z,7.51
2017-12-12T12:36:46.314Z,7.5
2017-12-12T12:37:46.326Z,7.43
2017-12-12T12:38:46.607Z,7.51
2017-12-12T12:39:46.362Z,7.43
2017-12-12T12:40:46.629Z,7.4
2017-12-12T12:41:46.642Z,7.43
2017-12-12T12:42:46.651Z,7.47
2017-12-12T12:43:46.665Z,7.51
2017-12-12T12:44:46.144Z,7.45
2017-12-12T12:45:46.690Z,7.47
2017-12-12T12:46:46.797Z,7.45
2017-12-12T12:47:46.714Z,7.47
2017-12-12T12:48:46.732Z,7.4
2017-12-12T12:49:46.740Z,7.51
2017-12-12T12:50:46.755Z,7.43
2017-12-12T12:51:46.228Z,7.36
2017-12-12T12:52:46.508Z,7.48
2017-12-12T12:53:46.521Z,7.48
2017-12-12T12:54:46.800Z,7.39
2017-12-12T12:55:46.819Z,7.47
2017-12-12T12:56:46.835Z,7.47
2017-12-12T12:57:46.836Z,7.42
2017-12-12T12:58:46.580Z,7.48
2017-12-12T12:59:46.862Z,7.47
2017-12-12T13:00:46.876Z,7.47
2017-12-12T13:01:46.897Z,7.48
2017-12-12T13:02:46.902Z,7.43
2017-12-12T13:03:46.643Z,7.42
2017-12-12T13:04:46.655Z,7.43
2017-12-12T13:05:46.667Z,7.45
2017-12-12T13:06:46.683Z,7.39
2017-12-12T13:07:46.694Z,7.42
2017-12-12T13:08:46.436Z,7.51
2017-12-12T13:09:46.718Z,7.45
2017-12-12T13:10:47.001Z,7.43
2017-12-12T13:11:46.744Z,7.48
2017-12-12T13:12:46.757Z,7.47
2017-12-12T13:13:47.044Z,7.51
2017-12-12T13:14:46.780Z,7.5
2017-12-12T13:15:47.055Z,7.54
2017-12-12T13:16:47.073Z,7.47
2017-12-12T13:17:46.817Z,7.51
2017-12-12T13:18:47.104Z,7.54
2017-12-12T13:19:46.843Z,7.51
2017-12-12T13:20:47.120Z,7.43